Sophie Blue — CRXK3 — position and weather

sailwx.info

Track history (hours):
 
Tides and Currents Weather Stations Pressure Air Temp Water Temp Dewpoint Dewpoint Depression Visibility Wind Speed Wind Dir Waves Ship Positions

Sophie Blue

Last reported at 2014-Jul-23 13:32 UTC. Time now 2014-Jul-23 13:36 UTC.
Position N 43°06' E 006°19'.

; draft 2.7 m.

Type: Other ship. MMSI: 255901270.

Date/timePositionNaut miles runAvg speedWind from/ knotsBaromVisibWave heightAir tempDewpointWater temp
2014-Jul-23 13:32N 43°06' E 006°19'0 0.0
2014-Jul-23 12:32N 43°06' E 006°19'0 0.0
2014-Jul-23 11:33N 43°06' E 006°19'0 0.4
2014-Jul-23 10:33N 43°06' E 006°19'3 0.2
2014-Jul-22 16:26N 43°07' E 006°23'3 3.3
2014-Jul-22 15:33N 43°06' E 006°19'0 0.0
2014-Jul-22 14:33N 43°06' E 006°19'0 0.0
2014-Jul-22 13:32N 43°06' E 006°19'0 0.0
2014-Jul-22 12:30N 43°06' E 006°19'0 0.0
2014-Jul-22 11:33N 43°06' E 006°19'0 0.0
2014-Jul-22 10:33N 43°06' E 006°19'3 1.4
2014-Jul-22 08:23N 43°08' E 006°22'0 0.0
2014-Jul-21 00:16N 43°08' E 006°22'0 0.0
2014-Jul-20 11:24N 43°08' E 006°22'0 0.0
2014-Jul-20 10:33N 43°08' E 006°22'0 0.0
2014-Jul-19 13:33N 43°07' E 006°22'3 0.1
2014-Jul-18 16:33N 43°05' E 006°21'2 2.4
2014-Jul-18 15:33N 43°06' E 006°19'0 0.0
2014-Jul-18 14:33N 43°06' E 006°19'0 0.0
2014-Jul-18 13:33N 43°06' E 006°19'0 0.0
2014-Jul-18 12:33N 43°06' E 006°19'0 0.0
2014-Jul-18 11:33N 43°06' E 006°19'0 0.0
2014-Jul-18 10:33N 43°06' E 006°19'3 2.1
2014-Jul-18 09:19N 43°07' E 006°22'0 0.0
2014-Jul-18 08:33N 43°07' E 006°22'0 0.0
2014-Jul-18 07:33N 43°07' E 006°22'0 0.0
2014-Jul-18 06:33N 43°07' E 006°22'0 0.0
2014-Jul-18 05:33N 43°07' E 006°22'0 0.0
2014-Jul-18 04:33N 43°07' E 006°22'0 0.0
2014-Jul-18 03:33N 43°07' E 006°22'0 0.0
2014-Jul-18 02:33N 43°07' E 006°22'0 0.0
2014-Jul-18 01:33N 43°07' E 006°22'0 0.0
2014-Jul-18 00:33N 43°07' E 006°22'0 0.0
2014-Jul-17 23:33N 43°07' E 006°22'0 0.0
2014-Jul-17 22:33N 43°07' E 006°22'0 0.0
2014-Jul-17 21:33N 43°07' E 006°22'0 0.0
2014-Jul-17 20:33N 43°07' E 006°22'0 0.0
2014-Jul-17 19:33N 43°07' E 006°22'0 0.0
2014-Jul-17 18:33N 43°07' E 006°22'0 0.0
2014-Jul-17 17:33N 43°07' E 006°22'2 2.0
2014-Jul-17 16:33N 43°05' E 006°23'3 3.0
2014-Jul-17 15:33N 43°06' E 006°19'0 0.0
2014-Jul-17 14:33N 43°06' E 006°19'0 0.0
2014-Jul-17 13:33N 43°06' E 006°19'0 0.0
2014-Jul-17 12:33N 43°06' E 006°19'0 0.0
2014-Jul-17 11:33N 43°06' E 006°19'0 0.0
2014-Jul-17 10:33N 43°06' E 006°19'3 0.3
2014-Jul-17 00:28N 43°08' E 006°22'0 0.0
2014-Jul-16 23:16N 43°08' E 006°22'3 0.5
2014-Jul-16 16:33N 43°05' E 006°21'2 1.9
2014-Jul-16 15:33N 43°06' E 006°19'0 0.0
2014-Jul-16 14:33N 43°06' E 006°19'0 0.0
2014-Jul-16 13:33N 43°06' E 006°19'0 0.0
2014-Jul-16 12:33N 43°06' E 006°19'0 0.0
2014-Jul-16 11:33N 43°06' E 006°19'0 0.0
2014-Jul-16 10:33N 43°06' E 006°19'8 7.6
2014-Jul-16 09:33N 43°01' E 006°12'0 0.2
2014-Jul-16 08:33N 43°01' E 006°11'0 0.0
2014-Jul-16 07:33N 43°01' E 006°11'0 0.0
2014-Jul-16 06:33N 43°01' E 006°11'0 0.0
2014-Jul-16 05:33N 43°01' E 006°11'0 0.0
2014-Jul-16 04:33N 43°01' E 006°11'0 0.0
2014-Jul-16 03:33N 43°01' E 006°11'0 0.0
2014-Jul-16 02:33N 43°01' E 006°11'0 0.0
2014-Jul-16 01:33N 43°01' E 006°11'0 0.0
2014-Jul-16 00:33N 43°01' E 006°11'0 0.0
2014-Jul-15 23:33N 43°01' E 006°11'0 0.0
2014-Jul-15 22:33N 43°01' E 006°11'0 0.0
2014-Jul-15 21:33N 43°01' E 006°11'0 0.0
2014-Jul-15 20:33N 43°01' E 006°11'0 0.0
2014-Jul-15 19:33N 43°01' E 006°11'0 0.0
2014-Jul-15 18:33N 43°01' E 006°11'0 0.0
2014-Jul-15 17:33N 43°01' E 006°11'2 1.7
2014-Jul-15 16:33N 43°01' E 006°14'0 0.0
2014-Jul-15 15:33N 43°01' E 006°14'0 0.0
2014-Jul-15 14:33N 43°01' E 006°14'0 0.0
2014-Jul-15 13:33N 43°01' E 006°14'0 0.0
2014-Jul-15 12:33N 43°01' E 006°14'0 0.0
2014-Jul-15 11:33N 43°01' E 006°14'0 0.0
2014-Jul-15 10:33N 43°01' E 006°14'8 8.1
2014-Jul-15 09:33N 43°06' E 006°23'1 1.0
2014-Jul-15 08:33N 43°07' E 006°22'0 0.0
2014-Jul-15 07:33N 43°07' E 006°22'0 0.0
2014-Jul-15 06:33N 43°07' E 006°22'0 0.0
2014-Jul-15 05:33N 43°07' E 006°22'0 0.0
2014-Jul-15 04:33N 43°07' E 006°22'0 0.0
2014-Jul-15 03:33N 43°07' E 006°22'0 0.0
2014-Jul-15 02:33N 43°07' E 006°22'0 0.0
2014-Jul-15 01:33N 43°07' E 006°22'0 0.0
2014-Jul-15 00:33N 43°07' E 006°22'0 0.0
2014-Jul-14 23:33N 43°07' E 006°22'0 0.0
2014-Jul-14 22:33N 43°07' E 006°22'0 0.0
2014-Jul-14 21:33N 43°07' E 006°22'0 0.0
2014-Jul-14 20:33N 43°07' E 006°22'0 0.0
2014-Jul-14 19:33N 43°07' E 006°22'0 0.0
2014-Jul-14 18:33N 43°07' E 006°22'0 0.0
2014-Jul-14 17:33N 43°07' E 006°22'0 0.0
2014-Jul-14 16:33N 43°07' E 006°22'0 0.0
2014-Jul-14 15:33N 43°07' E 006°22'0 0.0
2014-Jul-14 14:33N 43°07' E 006°22'0 0.0
2014-Jul-14 13:33N 43°07' E 006°22'0 0.0
2014-Jul-14 12:33N 43°07' E 006°22'0 0.0
2014-Jul-14 11:33N 43°07' E 006°22'0 0.0
2014-Jul-14 10:33N 43°07' E 006°22'12 0.6
2014-Jul-13 14:08N 43°10' E 006°38'  
Track history (hours):
 
Tides and Currents Weather Stations Pressure Air Temp Water Temp Dewpoint Dewpoint Depression Visibility Wind Speed Wind Dir Waves Ship Positions

Sophie Blue

Last reported at 2014-Jul-23 13:32 UTC. Time now 2014-Jul-23 13:36 UTC.
Position N 43°06' E 006°19'.

; draft 2.7 m.

Type: Other ship. MMSI: 255901270.

Date/timePositionNaut miles runAvg speedWind from/ knotsBaromVisibWave heightAir tempDewpointWater temp
2014-Jul-23 13:32N 43°06' E 006°19'0 0.0
2014-Jul-23 12:32N 43°06' E 006°19'0 0.0
2014-Jul-23 11:33N 43°06' E 006°19'0 0.4
2014-Jul-23 10:33N 43°06' E 006°19'3 0.2
2014-Jul-22 16:26N 43°07' E 006°23'3 3.3
2014-Jul-22 15:33N 43°06' E 006°19'0 0.0
2014-Jul-22 14:33N 43°06' E 006°19'0 0.0
2014-Jul-22 13:32N 43°06' E 006°19'0 0.0
2014-Jul-22 12:30N 43°06' E 006°19'0 0.0
2014-Jul-22 11:33N 43°06' E 006°19'0 0.0
2014-Jul-22 10:33N 43°06' E 006°19'3 1.4
2014-Jul-22 08:23N 43°08' E 006°22'0 0.0
2014-Jul-21 00:16N 43°08' E 006°22'0 0.0
2014-Jul-20 11:24N 43°08' E 006°22'0 0.0
2014-Jul-20 10:33N 43°08' E 006°22'0 0.0
2014-Jul-19 13:33N 43°07' E 006°22'3 0.1
2014-Jul-18 16:33N 43°05' E 006°21'2 2.4
2014-Jul-18 15:33N 43°06' E 006°19'0 0.0
2014-Jul-18 14:33N 43°06' E 006°19'0 0.0
2014-Jul-18 13:33N 43°06' E 006°19'0 0.0
2014-Jul-18 12:33N 43°06' E 006°19'0 0.0
2014-Jul-18 11:33N 43°06' E 006°19'0 0.0
2014-Jul-18 10:33N 43°06' E 006°19'3 2.1
2014-Jul-18 09:19N 43°07' E 006°22'0 0.0
2014-Jul-18 08:33N 43°07' E 006°22'0 0.0
2014-Jul-18 07:33N 43°07' E 006°22'0 0.0
2014-Jul-18 06:33N 43°07' E 006°22'0 0.0
2014-Jul-18 05:33N 43°07' E 006°22'0 0.0
2014-Jul-18 04:33N 43°07' E 006°22'0 0.0
2014-Jul-18 03:33N 43°07' E 006°22'0 0.0
2014-Jul-18 02:33N 43°07' E 006°22'0 0.0
2014-Jul-18 01:33N 43°07' E 006°22'0 0.0
2014-Jul-18 00:33N 43°07' E 006°22'0 0.0
2014-Jul-17 23:33N 43°07' E 006°22'0 0.0
2014-Jul-17 22:33N 43°07' E 006°22'0 0.0
2014-Jul-17 21:33N 43°07' E 006°22'0 0.0
2014-Jul-17 20:33N 43°07' E 006°22'0 0.0
2014-Jul-17 19:33N 43°07' E 006°22'0 0.0
2014-Jul-17 18:33N 43°07' E 006°22'0 0.0
2014-Jul-17 17:33N 43°07' E 006°22'2 2.0
2014-Jul-17 16:33N 43°05' E 006°23'3 3.0
2014-Jul-17 15:33N 43°06' E 006°19'0 0.0
2014-Jul-17 14:33N 43°06' E 006°19'0 0.0
2014-Jul-17 13:33N 43°06' E 006°19'0 0.0
2014-Jul-17 12:33N 43°06' E 006°19'0 0.0
2014-Jul-17 11:33N 43°06' E 006°19'0 0.0
2014-Jul-17 10:33N 43°06' E 006°19'3 0.3
2014-Jul-17 00:28N 43°08' E 006°22'0 0.0
2014-Jul-16 23:16N 43°08' E 006°22'3 0.5
2014-Jul-16 16:33N 43°05' E 006°21'2 1.9
2014-Jul-16 15:33N 43°06' E 006°19'0 0.0
2014-Jul-16 14:33N 43°06' E 006°19'0 0.0
2014-Jul-16 13:33N 43°06' E 006°19'0 0.0
2014-Jul-16 12:33N 43°06' E 006°19'0 0.0
2014-Jul-16 11:33N 43°06' E 006°19'0 0.0
2014-Jul-16 10:33N 43°06' E 006°19'8 7.6
2014-Jul-16 09:33N 43°01' E 006°12'0 0.2
2014-Jul-16 08:33N 43°01' E 006°11'0 0.0
2014-Jul-16 07:33N 43°01' E 006°11'0 0.0
2014-Jul-16 06:33N 43°01' E 006°11'0 0.0
2014-Jul-16 05:33N 43°01' E 006°11'0 0.0
2014-Jul-16 04:33N 43°01' E 006°11'0 0.0
2014-Jul-16 03:33N 43°01' E 006°11'0 0.0
2014-Jul-16 02:33N 43°01' E 006°11'0 0.0
2014-Jul-16 01:33N 43°01' E 006°11'0 0.0
2014-Jul-16 00:33N 43°01' E 006°11'0 0.0
2014-Jul-15 23:33N 43°01' E 006°11'0 0.0
2014-Jul-15 22:33N 43°01' E 006°11'0 0.0
2014-Jul-15 21:33N 43°01' E 006°11'0 0.0
2014-Jul-15 20:33N 43°01' E 006°11'0 0.0
2014-Jul-15 19:33N 43°01' E 006°11'0 0.0
2014-Jul-15 18:33N 43°01' E 006°11'0 0.0
2014-Jul-15 17:33N 43°01' E 006°11'2 1.7
2014-Jul-15 16:33N 43°01' E 006°14'0 0.0
2014-Jul-15 15:33N 43°01' E 006°14'0 0.0
2014-Jul-15 14:33N 43°01' E 006°14'0 0.0
2014-Jul-15 13:33N 43°01' E 006°14'0 0.0
2014-Jul-15 12:33N 43°01' E 006°14'0 0.0
2014-Jul-15 11:33N 43°01' E 006°14'0 0.0
2014-Jul-15 10:33N 43°01' E 006°14'8 8.1
2014-Jul-15 09:33N 43°06' E 006°23'1 1.0
2014-Jul-15 08:33N 43°07' E 006°22'0 0.0
2014-Jul-15 07:33N 43°07' E 006°22'0 0.0
2014-Jul-15 06:33N 43°07' E 006°22'0 0.0
2014-Jul-15 05:33N 43°07' E 006°22'0 0.0
2014-Jul-15 04:33N 43°07' E 006°22'0 0.0
2014-Jul-15 03:33N 43°07' E 006°22'0 0.0
2014-Jul-15 02:33N 43°07' E 006°22'0 0.0
2014-Jul-15 01:33N 43°07' E 006°22'0 0.0
2014-Jul-15 00:33N 43°07' E 006°22'0 0.0
2014-Jul-14 23:33N 43°07' E 006°22'0 0.0
2014-Jul-14 22:33N 43°07' E 006°22'0 0.0
2014-Jul-14 21:33N 43°07' E 006°22'0 0.0
2014-Jul-14 20:33N 43°07' E 006°22'0 0.0
2014-Jul-14 19:33N 43°07' E 006°22'0 0.0
2014-Jul-14 18:33N 43°07' E 006°22'0 0.0
2014-Jul-14 17:33N 43°07' E 006°22'0 0.0
2014-Jul-14 16:33N 43°07' E 006°22'0 0.0
2014-Jul-14 15:33N 43°07' E 006°22'0 0.0
2014-Jul-14 14:33N 43°07' E 006°22'0 0.0
2014-Jul-14 13:33N 43°07' E 006°22'0 0.0
2014-Jul-14 12:33N 43°07' E 006°22'0 0.0
2014-Jul-14 11:33N 43°07' E 006°22'0 0.0
2014-Jul-14 10:33N 43°07' E 006°22'12 0.6
2014-Jul-13 14:08N 43°10' E 006°38'  

Dump ship's entire track history